sensor_id;sensor_type;location;lat;lon;timestamp;P1;durP1;ratioP1;P2;durP2;ratioP2
11346;SDS011;5728;42.722;23.258;2023-12-28T00:02:01;15.57;;;9.07;;
11346;SDS011;5728;42.722;23.258;2023-12-28T00:04:28;14.37;;;9.10;;
11346;SDS011;5728;42.722;23.258;2023-12-28T00:06:55;17.73;;;9.17;;
11346;SDS011;5728;42.722;23.258;2023-12-28T00:09:22;16.40;;;10.03;;
11346;SDS011;5728;42.722;23.258;2023-12-28T00:11:49;14.97;;;9.70;;
11346;SDS011;5728;42.722;23.258;2023-12-28T00:14:17;21.80;;;10.30;;
11346;SDS011;5728;42.722;23.258;2023-12-28T00:16:44;16.17;;;9.53;;
11346;SDS011;5728;42.722;23.258;2023-12-28T00:19:11;20.97;;;9.73;;
11346;SDS011;5728;42.722;23.258;2023-12-28T00:21:38;17.53;;;9.70;;
11346;SDS011;5728;42.722;23.258;2023-12-28T00:24:06;20.33;;;9.03;;
11346;SDS011;5728;42.722;23.258;2023-12-28T00:26:33;15.60;;;9.80;;
11346;SDS011;5728;42.722;23.258;2023-12-28T00:29:00;12.30;;;9.43;;
11346;SDS011;5728;42.722;23.258;2023-12-28T00:31:28;14.67;;;9.50;;
11346;SDS011;5728;42.722;23.258;2023-12-28T00:33:55;15.43;;;9.47;;
11346;SDS011;5728;42.722;23.258;2023-12-28T00:36:22;15.67;;;10.33;;
11346;SDS011;5728;42.722;23.258;2023-12-28T00:38:49;18.03;;;9.70;;
11346;SDS011;5728;42.722;23.258;2023-12-28T00:41:16;15.53;;;10.03;;
11346;SDS011;5728;42.722;23.258;2023-12-28T00:43:43;16.93;;;11.33;;
11346;SDS011;5728;42.722;23.258;2023-12-28T00:46:10;13.13;;;9.47;;
11346;SDS011;5728;42.722;23.258;2023-12-28T00:48:39;16.00;;;9.33;;
11346;SDS011;5728;42.722;23.258;2023-12-28T00:51:06;13.43;;;9.10;;
11346;SDS011;5728;42.722;23.258;2023-12-28T00:53:33;13.87;;;9.57;;
11346;SDS011;5728;42.722;23.258;2023-12-28T00:56:00;18.47;;;10.83;;
11346;SDS011;5728;42.722;23.258;2023-12-28T00:58:27;23.03;;;11.30;;
11346;SDS011;5728;42.722;23.258;2023-12-28T01:00:54;15.10;;;10.67;;
11346;SDS011;5728;42.722;23.258;2023-12-28T01:03:22;19.07;;;10.53;;
11346;SDS011;5728;42.722;23.258;2023-12-28T01:05:50;21.03;;;11.87;;
11346;SDS011;5728;42.722;23.258;2023-12-28T01:08:18;22.30;;;14.23;;
11346;SDS011;5728;42.722;23.258;2023-12-28T01:10:45;21.77;;;14.17;;
11346;SDS011;5728;42.722;23.258;2023-12-28T01:13:12;22.43;;;13.57;;
11346;SDS011;5728;42.722;23.258;2023-12-28T01:15:39;20.77;;;14.03;;
11346;SDS011;5728;42.722;23.258;2023-12-28T01:18:06;21.53;;;12.23;;
11346;SDS011;5728;42.722;23.258;2023-12-28T01:20:33;23.13;;;13.37;;
11346;SDS011;5728;42.722;23.258;2023-12-28T01:23:01;20.53;;;13.20;;
11346;SDS011;5728;42.722;23.258;2023-12-28T01:25:28;20.27;;;12.77;;
11346;SDS011;5728;42.722;23.258;2023-12-28T01:27:55;22.50;;;12.67;;
11346;SDS011;5728;42.722;23.258;2023-12-28T01:30:22;21.47;;;13.07;;
11346;SDS011;5728;42.722;23.258;2023-12-28T01:32:49;17.73;;;11.60;;
11346;SDS011;5728;42.722;23.258;2023-12-28T01:35:16;21.10;;;10.93;;
11346;SDS011;5728;42.722;23.258;2023-12-28T01:37:43;16.67;;;11.83;;
11346;SDS011;5728;42.722;23.258;2023-12-28T01:40:12;17.37;;;11.93;;
11346;SDS011;5728;42.722;23.258;2023-12-28T01:42:39;17.00;;;11.60;;
11346;SDS011;5728;42.722;23.258;2023-12-28T01:45:06;20.40;;;12.33;;
11346;SDS011;5728;42.722;23.258;2023-12-28T01:47:34;22.57;;;12.03;;
11346;SDS011;5728;42.722;23.258;2023-12-28T01:50:02;24.00;;;12.27;;
11346;SDS011;5728;42.722;23.258;2023-12-28T01:52:29;20.00;;;11.83;;
11346;SDS011;5728;42.722;23.258;2023-12-28T01:54:56;19.90;;;11.33;;
11346;SDS011;5728;42.722;23.258;2023-12-28T01:57:25;22.60;;;12.80;;
11346;SDS011;5728;42.722;23.258;2023-12-28T01:59:52;21.43;;;11.87;;
11346;SDS011;5728;42.722;23.258;2023-12-28T02:02:20;19.63;;;12.90;;
11346;SDS011;5728;42.722;23.258;2023-12-28T02:04:48;23.67;;;14.60;;
11346;SDS011;5728;42.722;23.258;2023-12-28T02:07:16;25.00;;;14.47;;
11346;SDS011;5728;42.722;23.258;2023-12-28T02:09:43;31.93;;;16.33;;
11346;SDS011;5728;42.722;23.258;2023-12-28T02:12:10;30.53;;;17.27;;
11346;SDS011;5728;42.722;23.258;2023-12-28T02:14:39;29.63;;;15.40;;
11346;SDS011;5728;42.722;23.258;2023-12-28T02:17:06;20.30;;;14.57;;
11346;SDS011;5728;42.722;23.258;2023-12-28T02:19:40;23.77;;;14.33;;
11346;SDS011;5728;42.722;23.258;2023-12-28T02:22:14;24.50;;;13.87;;
11346;SDS011;5728;42.722;23.258;2023-12-28T02:27:33;28.37;;;15.67;;
11346;SDS011;5728;42.722;23.258;2023-12-28T02:30:02;30.23;;;15.10;;
11346;SDS011;5728;42.722;23.258;2023-12-28T02:32:35;27.00;;;14.40;;
11346;SDS011;5728;42.722;23.258;2023-12-28T02:35:12;26.40;;;14.00;;
11346;SDS011;5728;42.722;23.258;2023-12-28T02:37:43;28.93;;;13.87;;
11346;SDS011;5728;42.722;23.258;2023-12-28T02:40:16;23.03;;;13.27;;
11346;SDS011;5728;42.722;23.258;2023-12-28T02:42:44;23.73;;;13.80;;
11346;SDS011;5728;42.722;23.258;2023-12-28T02:45:10;24.67;;;14.03;;
11346;SDS011;5728;42.722;23.258;2023-12-28T02:47:37;24.13;;;14.07;;
11346;SDS011;5728;42.722;23.258;2023-12-28T02:50:05;23.93;;;14.43;;
11346;SDS011;5728;42.722;23.258;2023-12-28T02:52:33;20.20;;;13.20;;
11346;SDS011;5728;42.722;23.258;2023-12-28T02:55:00;23.03;;;12.93;;
11346;SDS011;5728;42.722;23.258;2023-12-28T02:57:28;20.60;;;12.63;;
11346;SDS011;5728;42.722;23.258;2023-12-28T02:59:55;24.43;;;13.03;;
11346;SDS011;5728;42.722;23.258;2023-12-28T03:02:26;19.93;;;12.53;;
11346;SDS011;5728;42.722;23.258;2023-12-28T03:04:55;19.97;;;12.03;;
11346;SDS011;5728;42.722;23.258;2023-12-28T03:07:22;21.17;;;12.60;;
11346;SDS011;5728;42.722;23.258;2023-12-28T03:09:49;22.43;;;13.03;;
11346;SDS011;5728;42.722;23.258;2023-12-28T03:12:16;20.50;;;10.93;;
11346;SDS011;5728;42.722;23.258;2023-12-28T03:14:44;23.70;;;12.10;;
11346;SDS011;5728;42.722;23.258;2023-12-28T03:17:11;19.90;;;11.30;;
11346;SDS011;5728;42.722;23.258;2023-12-28T03:19:39;23.27;;;12.57;;
11346;SDS011;5728;42.722;23.258;2023-12-28T03:22:06;21.60;;;11.73;;
11346;SDS011;5728;42.722;23.258;2023-12-28T03:24:32;19.53;;;12.07;;
11346;SDS011;5728;42.722;23.258;2023-12-28T03:26:59;19.60;;;11.73;;
11346;SDS011;5728;42.722;23.258;2023-12-28T03:29:26;21.57;;;11.63;;
11346;SDS011;5728;42.722;23.258;2023-12-28T03:31:55;21.37;;;12.13;;
11346;SDS011;5728;42.722;23.258;2023-12-28T03:34:23;17.90;;;11.87;;
11346;SDS011;5728;42.722;23.258;2023-12-28T03:36:51;22.17;;;12.90;;
11346;SDS011;5728;42.722;23.258;2023-12-28T03:39:19;19.40;;;12.10;;
11346;SDS011;5728;42.722;23.258;2023-12-28T03:41:46;23.53;;;12.83;;
11346;SDS011;5728;42.722;23.258;2023-12-28T03:44:14;23.73;;;13.13;;
11346;SDS011;5728;42.722;23.258;2023-12-28T03:46:40;17.93;;;11.80;;
11346;SDS011;5728;42.722;23.258;2023-12-28T03:49:10;21.80;;;12.37;;
11346;SDS011;5728;42.722;23.258;2023-12-28T03:51:37;16.30;;;11.03;;
11346;SDS011;5728;42.722;23.258;2023-12-28T03:54:03;18.90;;;12.07;;
11346;SDS011;5728;42.722;23.258;2023-12-28T03:56:31;19.40;;;12.33;;
11346;SDS011;5728;42.722;23.258;2023-12-28T03:59:00;20.47;;;12.77;;
11346;SDS011;5728;42.722;23.258;2023-12-28T04:01:28;18.63;;;10.97;;
11346;SDS011;5728;42.722;23.258;2023-12-28T04:03:55;19.07;;;11.30;;
11346;SDS011;5728;42.722;23.258;2023-12-28T04:06:23;20.97;;;10.90;;
11346;SDS011;5728;42.722;23.258;2023-12-28T04:08:50;16.20;;;10.67;;
11346;SDS011;5728;42.722;23.258;2023-12-28T04:11:17;20.37;;;11.67;;
11346;SDS011;5728;42.722;23.258;2023-12-28T04:13:44;17.77;;;11.93;;
11346;SDS011;5728;42.722;23.258;2023-12-28T04:16:12;18.20;;;11.87;;
11346;SDS011;5728;42.722;23.258;2023-12-28T04:18:39;19.30;;;11.13;;
11346;SDS011;5728;42.722;23.258;2023-12-28T04:21:07;18.73;;;10.87;;
11346;SDS011;5728;42.722;23.258;2023-12-28T04:23:38;17.27;;;11.73;;
11346;SDS011;5728;42.722;23.258;2023-12-28T04:26:06;16.23;;;10.43;;
11346;SDS011;5728;42.722;23.258;2023-12-28T04:28:33;26.03;;;13.23;;
11346;SDS011;5728;42.722;23.258;2023-12-28T04:31:01;20.23;;;11.93;;
11346;SDS011;5728;42.722;23.258;2023-12-28T04:33:29;23.50;;;11.17;;
11346;SDS011;5728;42.722;23.258;2023-12-28T04:35:56;21.17;;;13.23;;
11346;SDS011;5728;42.722;23.258;2023-12-28T04:38:23;17.83;;;12.00;;
11346;SDS011;5728;42.722;23.258;2023-12-28T04:40:51;22.33;;;12.40;;
11346;SDS011;5728;42.722;23.258;2023-12-28T04:43:19;24.13;;;12.57;;
11346;SDS011;5728;42.722;23.258;2023-12-28T04:45:45;21.87;;;13.50;;
11346;SDS011;5728;42.722;23.258;2023-12-28T04:48:12;20.67;;;13.07;;
11346;SDS011;5728;42.722;23.258;2023-12-28T04:50:39;21.53;;;12.87;;
11346;SDS011;5728;42.722;23.258;2023-12-28T04:53:06;23.00;;;12.77;;
11346;SDS011;5728;42.722;23.258;2023-12-28T04:55:33;19.13;;;12.63;;
11346;SDS011;5728;42.722;23.258;2023-12-28T04:58:02;23.30;;;13.37;;
11346;SDS011;5728;42.722;23.258;2023-12-28T05:00:29;22.53;;;11.60;;
11346;SDS011;5728;42.722;23.258;2023-12-28T05:02:56;21.57;;;12.73;;
11346;SDS011;5728;42.722;23.258;2023-12-28T05:05:23;24.70;;;12.07;;
11346;SDS011;5728;42.722;23.258;2023-12-28T05:07:50;21.10;;;11.77;;
11346;SDS011;5728;42.722;23.258;2023-12-28T05:10:16;19.90;;;12.60;;
11346;SDS011;5728;42.722;23.258;2023-12-28T05:12:43;21.00;;;11.50;;
11346;SDS011;5728;42.722;23.258;2023-12-28T05:15:12;17.30;;;11.40;;
11346;SDS011;5728;42.722;23.258;2023-12-28T05:17:39;17.90;;;12.10;;
11346;SDS011;5728;42.722;23.258;2023-12-28T05:20:07;19.83;;;12.40;;
11346;SDS011;5728;42.722;23.258;2023-12-28T05:22:34;16.93;;;11.90;;
11346;SDS011;5728;42.722;23.258;2023-12-28T05:25:01;18.77;;;11.87;;
11346;SDS011;5728;42.722;23.258;2023-12-28T05:27:28;20.97;;;12.40;;
11346;SDS011;5728;42.722;23.258;2023-12-28T05:29:55;18.70;;;11.83;;
11346;SDS011;5728;42.722;23.258;2023-12-28T05:32:24;23.03;;;15.73;;
11346;SDS011;5728;42.722;23.258;2023-12-28T05:34:50;28.83;;;13.93;;
11346;SDS011;5728;42.722;23.258;2023-12-28T05:37:17;22.77;;;13.90;;
11346;SDS011;5728;42.722;23.258;2023-12-28T05:39:44;21.97;;;13.23;;
11346;SDS011;5728;42.722;23.258;2023-12-28T05:42:11;21.90;;;15.07;;
11346;SDS011;5728;42.722;23.258;2023-12-28T05:44:38;23.73;;;15.07;;
11346;SDS011;5728;42.722;23.258;2023-12-28T05:47:05;30.50;;;18.40;;
11346;SDS011;5728;42.722;23.258;2023-12-28T05:49:34;31.20;;;18.83;;
11346;SDS011;5728;42.722;23.258;2023-12-28T05:52:01;33.73;;;20.17;;
11346;SDS011;5728;42.722;23.258;2023-12-28T05:54:28;35.93;;;21.03;;
11346;SDS011;5728;42.722;23.258;2023-12-28T05:56:55;40.23;;;21.43;;
11346;SDS011;5728;42.722;23.258;2023-12-28T05:59:22;37.40;;;20.27;;
11346;SDS011;5728;42.722;23.258;2023-12-28T06:01:51;39.53;;;22.43;;
11346;SDS011;5728;42.722;23.258;2023-12-28T06:04:18;35.07;;;21.20;;
11346;SDS011;5728;42.722;23.258;2023-12-28T06:06:46;38.57;;;22.13;;
11346;SDS011;5728;42.722;23.258;2023-12-28T06:09:13;38.53;;;23.60;;
11346;SDS011;5728;42.722;23.258;2023-12-28T06:11:41;39.53;;;22.80;;
11346;SDS011;5728;42.722;23.258;2023-12-28T06:14:08;36.60;;;22.60;;
11346;SDS011;5728;42.722;23.258;2023-12-28T06:16:35;59.90;;;29.70;;
11346;SDS011;5728;42.722;23.258;2023-12-28T06:19:02;56.00;;;28.63;;
11346;SDS011;5728;42.722;23.258;2023-12-28T06:21:29;50.43;;;27.00;;
11346;SDS011;5728;42.722;23.258;2023-12-28T06:23:57;48.73;;;26.97;;
11346;SDS011;5728;42.722;23.258;2023-12-28T06:26:24;45.60;;;28.07;;
11346;SDS011;5728;42.722;23.258;2023-12-28T06:28:51;52.17;;;29.43;;
11346;SDS011;5728;42.722;23.258;2023-12-28T06:31:18;54.27;;;28.73;;
11346;SDS011;5728;42.722;23.258;2023-12-28T06:33:45;51.80;;;28.60;;
11346;SDS011;5728;42.722;23.258;2023-12-28T06:36:12;57.63;;;29.67;;
11346;SDS011;5728;42.722;23.258;2023-12-28T06:38:39;65.87;;;37.10;;
11346;SDS011;5728;42.722;23.258;2023-12-28T06:41:11;84.67;;;49.60;;
11346;SDS011;5728;42.722;23.258;2023-12-28T06:43:38;80.30;;;50.97;;
11346;SDS011;5728;42.722;23.258;2023-12-28T06:46:06;71.67;;;45.43;;
11346;SDS011;5728;42.722;23.258;2023-12-28T06:48:33;82.03;;;50.03;;
11346;SDS011;5728;42.722;23.258;2023-12-28T06:51:00;80.17;;;52.63;;
11346;SDS011;5728;42.722;23.258;2023-12-28T06:53:27;99.43;;;63.43;;
11346;SDS011;5728;42.722;23.258;2023-12-28T06:55:55;88.63;;;54.80;;
11346;SDS011;5728;42.722;23.258;2023-12-28T06:58:23;81.20;;;48.07;;
11346;SDS011;5728;42.722;23.258;2023-12-28T07:00:50;81.00;;;45.30;;
11346;SDS011;5728;42.722;23.258;2023-12-28T07:03:17;84.07;;;46.27;;
11346;SDS011;5728;42.722;23.258;2023-12-28T07:05:44;69.57;;;39.77;;
11346;SDS011;5728;42.722;23.258;2023-12-28T07:08:11;60.00;;;37.00;;
11346;SDS011;5728;42.722;23.258;2023-12-28T07:10:38;61.87;;;35.73;;
11346;SDS011;5728;42.722;23.258;2023-12-28T07:13:06;51.50;;;31.67;;
11346;SDS011;5728;42.722;23.258;2023-12-28T07:15:35;47.53;;;28.03;;
11346;SDS011;5728;42.722;23.258;2023-12-28T07:18:02;44.10;;;27.83;;
11346;SDS011;5728;42.722;23.258;2023-12-28T07:20:29;44.57;;;27.90;;
11346;SDS011;5728;42.722;23.258;2023-12-28T07:22:56;46.27;;;27.37;;
11346;SDS011;5728;42.722;23.258;2023-12-28T07:25:24;55.17;;;31.33;;
11346;SDS011;5728;42.722;23.258;2023-12-28T07:27:53;50.97;;;29.70;;
11346;SDS011;5728;42.722;23.258;2023-12-28T07:30:23;52.93;;;29.10;;
11346;SDS011;5728;42.722;23.258;2023-12-28T07:32:56;48.23;;;29.40;;
11346;SDS011;5728;42.722;23.258;2023-12-28T07:35:26;47.93;;;30.20;;
11346;SDS011;5728;42.722;23.258;2023-12-28T07:38:17;39.13;;;22.97;;
11346;SDS011;5728;42.722;23.258;2023-12-28T07:40:46;30.63;;;20.17;;
11346;SDS011;5728;42.722;23.258;2023-12-28T07:43:15;41.37;;;20.13;;
11346;SDS011;5728;42.722;23.258;2023-12-28T07:45:45;42.73;;;24.80;;
11346;SDS011;5728;42.722;23.258;2023-12-28T07:48:14;41.60;;;24.50;;
11346;SDS011;5728;42.722;23.258;2023-12-28T07:50:41;41.87;;;23.73;;
11346;SDS011;5728;42.722;23.258;2023-12-28T07:53:08;41.13;;;23.77;;
11346;SDS011;5728;42.722;23.258;2023-12-28T07:55:40;33.47;;;22.47;;
11346;SDS011;5728;42.722;23.258;2023-12-28T07:58:19;36.20;;;22.63;;
11346;SDS011;5728;42.722;23.258;2023-12-28T08:00:46;38.90;;;22.30;;
11346;SDS011;5728;42.722;23.258;2023-12-28T08:03:37;36.50;;;23.47;;
11346;SDS011;5728;42.722;23.258;2023-12-28T08:06:07;42.40;;;24.10;;
11346;SDS011;5728;42.722;23.258;2023-12-28T08:08:38;46.03;;;24.13;;
11346;SDS011;5728;42.722;23.258;2023-12-28T08:11:05;40.67;;;24.33;;
11346;SDS011;5728;42.722;23.258;2023-12-28T08:13:33;35.50;;;22.77;;
11346;SDS011;5728;42.722;23.258;2023-12-28T08:16:00;38.57;;;24.00;;
11346;SDS011;5728;42.722;23.258;2023-12-28T08:18:29;44.13;;;23.77;;
11346;SDS011;5728;42.722;23.258;2023-12-28T08:21:00;47.83;;;22.73;;
11346;SDS011;5728;42.722;23.258;2023-12-28T08:23:28;40.90;;;25.30;;
11346;SDS011;5728;42.722;23.258;2023-12-28T08:25:58;35.90;;;23.93;;
11346;SDS011;5728;42.722;23.258;2023-12-28T08:28:25;40.00;;;25.07;;
11346;SDS011;5728;42.722;23.258;2023-12-28T08:30:58;40.13;;;23.80;;
11346;SDS011;5728;42.722;23.258;2023-12-28T08:33:25;44.07;;;24.80;;
11346;SDS011;5728;42.722;23.258;2023-12-28T08:35:53;52.27;;;25.00;;
11346;SDS011;5728;42.722;23.258;2023-12-28T08:38:22;39.40;;;25.23;;
11346;SDS011;5728;42.722;23.258;2023-12-28T08:40:50;42.27;;;25.80;;
11346;SDS011;5728;42.722;23.258;2023-12-28T08:43:18;42.37;;;24.60;;
11346;SDS011;5728;42.722;23.258;2023-12-28T08:45:47;40.20;;;25.67;;
11346;SDS011;5728;42.722;23.258;2023-12-28T08:48:14;39.37;;;25.33;;
11346;SDS011;5728;42.722;23.258;2023-12-28T08:50:41;45.67;;;28.37;;
11346;SDS011;5728;42.722;23.258;2023-12-28T08:53:08;53.13;;;30.73;;
11346;SDS011;5728;42.722;23.258;2023-12-28T08:55:37;51.13;;;30.47;;
11346;SDS011;5728;42.722;23.258;2023-12-28T08:58:04;50.60;;;28.77;;
11346;SDS011;5728;42.722;23.258;2023-12-28T09:00:32;49.07;;;28.40;;
11346;SDS011;5728;42.722;23.258;2023-12-28T09:03:04;50.60;;;28.93;;
11346;SDS011;5728;42.722;23.258;2023-12-28T09:05:34;52.40;;;34.57;;
11346;SDS011;5728;42.722;23.258;2023-12-28T09:08:01;51.60;;;31.60;;
11346;SDS011;5728;42.722;23.258;2023-12-28T09:10:28;46.50;;;31.20;;
11346;SDS011;5728;42.722;23.258;2023-12-28T09:12:56;46.03;;;29.30;;
11346;SDS011;5728;42.722;23.258;2023-12-28T09:15:24;44.37;;;26.40;;
11346;SDS011;5728;42.722;23.258;2023-12-28T09:17:51;50.20;;;29.03;;
11346;SDS011;5728;42.722;23.258;2023-12-28T09:20:18;52.40;;;28.00;;
11346;SDS011;5728;42.722;23.258;2023-12-28T09:22:48;48.97;;;31.37;;
11346;SDS011;5728;42.722;23.258;2023-12-28T09:25:21;56.35;;;30.73;;
11346;SDS011;5728;42.722;23.258;2023-12-28T09:27:49;48.07;;;28.80;;
11346;SDS011;5728;42.722;23.258;2023-12-28T09:30:18;49.03;;;27.63;;
11346;SDS011;5728;42.722;23.258;2023-12-28T09:32:45;48.53;;;26.30;;
11346;SDS011;5728;42.722;23.258;2023-12-28T09:35:12;52.13;;;29.33;;
11346;SDS011;5728;42.722;23.258;2023-12-28T09:37:39;43.03;;;25.50;;
11346;SDS011;5728;42.722;23.258;2023-12-28T09:40:07;35.73;;;23.20;;
11346;SDS011;5728;42.722;23.258;2023-12-28T09:42:37;34.47;;;23.10;;
11346;SDS011;5728;42.722;23.258;2023-12-28T09:45:10;42.07;;;23.63;;
11346;SDS011;5728;42.722;23.258;2023-12-28T09:47:43;34.03;;;21.30;;
11346;SDS011;5728;42.722;23.258;2023-12-28T09:50:13;35.13;;;21.60;;
11346;SDS011;5728;42.722;23.258;2023-12-28T09:52:45;44.03;;;21.97;;
11346;SDS011;5728;42.722;23.258;2023-12-28T09:55:16;33.20;;;21.50;;
11346;SDS011;5728;42.722;23.258;2023-12-28T09:57:43;35.73;;;19.97;;
11346;SDS011;5728;42.722;23.258;2023-12-28T10:00:11;41.00;;;21.07;;
11346;SDS011;5728;42.722;23.258;2023-12-28T10:02:39;34.73;;;19.60;;
11346;SDS011;5728;42.722;23.258;2023-12-28T10:05:13;31.80;;;19.70;;
11346;SDS011;5728;42.722;23.258;2023-12-28T10:07:41;36.57;;;19.20;;
11346;SDS011;5728;42.722;23.258;2023-12-28T10:10:09;33.90;;;20.63;;
11346;SDS011;5728;42.722;23.258;2023-12-28T10:12:37;34.13;;;19.77;;
11346;SDS011;5728;42.722;23.258;2023-12-28T10:15:04;39.17;;;20.90;;
11346;SDS011;5728;42.722;23.258;2023-12-28T10:17:33;32.53;;;20.43;;
11346;SDS011;5728;42.722;23.258;2023-12-28T10:20:00;35.83;;;20.63;;
11346;SDS011;5728;42.722;23.258;2023-12-28T10:22:33;33.23;;;20.40;;
11346;SDS011;5728;42.722;23.258;2023-12-28T10:25:02;35.47;;;22.30;;
11346;SDS011;5728;42.722;23.258;2023-12-28T10:27:29;34.03;;;20.53;;
11346;SDS011;5728;42.722;23.258;2023-12-28T10:29:57;35.00;;;21.43;;
11346;SDS011;5728;42.722;23.258;2023-12-28T10:32:26;35.67;;;22.33;;
11346;SDS011;5728;42.722;23.258;2023-12-28T10:34:53;30.07;;;21.80;;
11346;SDS011;5728;42.722;23.258;2023-12-28T10:37:20;38.63;;;23.40;;
11346;SDS011;5728;42.722;23.258;2023-12-28T10:39:49;47.40;;;24.27;;
11346;SDS011;5728;42.722;23.258;2023-12-28T10:42:24;36.13;;;23.90;;
11346;SDS011;5728;42.722;23.258;2023-12-28T10:44:58;41.17;;;24.87;;
11346;SDS011;5728;42.722;23.258;2023-12-28T10:47:31;42.97;;;26.47;;
11346;SDS011;5728;42.722;23.258;2023-12-28T10:50:02;45.43;;;27.37;;
11346;SDS011;5728;42.722;23.258;2023-12-28T10:52:31;50.27;;;25.63;;
11346;SDS011;5728;42.722;23.258;2023-12-28T10:55:06;54.73;;;26.83;;
11346;SDS011;5728;42.722;23.258;2023-12-28T10:57:49;40.40;;;26.03;;
11346;SDS011;5728;42.722;23.258;2023-12-28T11:00:33;42.77;;;24.77;;
11346;SDS011;5728;42.722;23.258;2023-12-28T11:03:12;44.53;;;24.63;;
11346;SDS011;5728;42.722;23.258;2023-12-28T11:05:51;38.10;;;24.03;;
11346;SDS011;5728;42.722;23.258;2023-12-28T11:08:20;47.13;;;25.13;;
11346;SDS011;5728;42.722;23.258;2023-12-28T11:10:49;44.83;;;23.70;;
11346;SDS011;5728;42.722;23.258;2023-12-28T11:13:18;46.22;;;24.83;;
11346;SDS011;5728;42.722;23.258;2023-12-28T11:15:47;40.65;;;24.38;;
11346;SDS011;5728;42.722;23.258;2023-12-28T11:18:16;43.17;;;26.23;;
11346;SDS011;5728;42.722;23.258;2023-12-28T11:20:46;37.40;;;23.50;;
11346;SDS011;5728;42.722;23.258;2023-12-28T11:23:15;37.45;;;23.15;;
11346;SDS011;5728;42.722;23.258;2023-12-28T11:25:42;37.40;;;23.05;;
11346;SDS011;5728;42.722;23.258;2023-12-28T11:28:11;32.90;;;22.42;;
11346;SDS011;5728;42.722;23.258;2023-12-28T11:30:41;45.58;;;23.75;;
11346;SDS011;5728;42.722;23.258;2023-12-28T11:33:09;36.08;;;21.33;;
11346;SDS011;5728;42.722;23.258;2023-12-28T11:35:38;35.10;;;23.08;;
11346;SDS011;5728;42.722;23.258;2023-12-28T11:38:06;36.97;;;22.77;;
11346;SDS011;5728;42.722;23.258;2023-12-28T11:40:42;46.25;;;26.35;;
11346;SDS011;5728;42.722;23.258;2023-12-28T11:43:17;41.17;;;25.55;;
11346;SDS011;5728;42.722;23.258;2023-12-28T11:45:48;38.10;;;21.77;;
11346;SDS011;5728;42.722;23.258;2023-12-28T11:48:22;36.55;;;22.48;;
11346;SDS011;5728;42.722;23.258;2023-12-28T11:50:52;31.17;;;20.77;;
11346;SDS011;5728;42.722;23.258;2023-12-28T11:53:22;38.58;;;19.83;;
11346;SDS011;5728;42.722;23.258;2023-12-28T11:55:50;38.10;;;19.00;;
11346;SDS011;5728;42.722;23.258;2023-12-28T11:58:19;36.33;;;19.23;;
11346;SDS011;5728;42.722;23.258;2023-12-28T12:00:47;32.90;;;17.70;;
11346;SDS011;5728;42.722;23.258;2023-12-28T12:03:14;31.73;;;19.75;;
11346;SDS011;5728;42.722;23.258;2023-12-28T12:05:41;29.05;;;17.30;;
11346;SDS011;5728;42.722;23.258;2023-12-28T12:08:09;27.40;;;17.15;;
11346;SDS011;5728;42.722;23.258;2023-12-28T12:10:39;26.92;;;17.88;;
11346;SDS011;5728;42.722;23.258;2023-12-28T12:13:07;30.40;;;19.65;;
11346;SDS011;5728;42.722;23.258;2023-12-28T12:15:35;24.45;;;17.42;;
11346;SDS011;5728;42.722;23.258;2023-12-28T12:18:03;31.67;;;20.55;;
11346;SDS011;5728;42.722;23.258;2023-12-28T12:20:31;30.77;;;17.23;;
11346;SDS011;5728;42.722;23.258;2023-12-28T12:22:58;25.33;;;17.23;;
11346;SDS011;5728;42.722;23.258;2023-12-28T12:25:25;29.73;;;18.10;;
11346;SDS011;5728;42.722;23.258;2023-12-28T12:27:55;269.33;;;76.70;;
11346;SDS011;5728;42.722;23.258;2023-12-28T12:30:22;129.18;;;39.40;;
11346;SDS011;5728;42.722;23.258;2023-12-28T12:32:50;115.53;;;38.28;;
11346;SDS011;5728;42.722;23.258;2023-12-28T12:35:17;26.10;;;13.18;;
11346;SDS011;5728;42.722;23.258;2023-12-28T12:37:46;21.30;;;11.40;;
11346;SDS011;5728;42.722;23.258;2023-12-28T12:40:14;54.28;;;22.02;;
11346;SDS011;5728;42.722;23.258;2023-12-28T12:42:43;53.97;;;20.55;;
11346;SDS011;5728;42.722;23.258;2023-12-28T12:45:18;21.95;;;12.68;;
11346;SDS011;5728;42.722;23.258;2023-12-28T12:47:46;65.45;;;22.95;;
11346;SDS011;5728;42.722;23.258;2023-12-28T12:50:17;152.75;;;47.35;;
11346;SDS011;5728;42.722;23.258;2023-12-28T12:52:44;17.65;;;11.75;;
11346;SDS011;5728;42.722;23.258;2023-12-28T12:55:13;102.68;;;33.08;;
11346;SDS011;5728;42.722;23.258;2023-12-28T12:57:40;96.00;;;34.97;;
11346;SDS011;5728;42.722;23.258;2023-12-28T13:00:09;20.98;;;11.00;;
11346;SDS011;5728;42.722;23.258;2023-12-28T13:02:36;84.65;;;26.83;;
11346;SDS011;5728;42.722;23.258;2023-12-28T13:05:03;15.90;;;10.25;;
11346;SDS011;5728;42.722;23.258;2023-12-28T13:07:32;18.58;;;10.70;;
11346;SDS011;5728;42.722;23.258;2023-12-28T13:10:00;17.27;;;11.23;;
11346;SDS011;5728;42.722;23.258;2023-12-28T13:12:27;21.95;;;13.38;;
11346;SDS011;5728;42.722;23.258;2023-12-28T13:14:57;21.67;;;13.18;;
11346;SDS011;5728;42.722;23.258;2023-12-28T13:17:24;18.95;;;12.27;;
11346;SDS011;5728;42.722;23.258;2023-12-28T13:19:51;72.57;;;25.77;;
11346;SDS011;5728;42.722;23.258;2023-12-28T13:22:18;60.97;;;24.10;;
11346;SDS011;5728;42.722;23.258;2023-12-28T13:24:47;24.88;;;14.20;;
11346;SDS011;5728;42.722;23.258;2023-12-28T13:27:15;22.65;;;12.65;;
11346;SDS011;5728;42.722;23.258;2023-12-28T13:29:42;57.30;;;24.30;;
11346;SDS011;5728;42.722;23.258;2023-12-28T13:32:09;21.67;;;12.32;;
11346;SDS011;5728;42.722;23.258;2023-12-28T13:34:37;59.10;;;22.30;;
11346;SDS011;5728;42.722;23.258;2023-12-28T13:37:04;50.10;;;19.88;;
11346;SDS011;5728;42.722;23.258;2023-12-28T13:39:31;61.08;;;22.27;;
11346;SDS011;5728;42.722;23.258;2023-12-28T13:42:05;43.40;;;18.95;;
11346;SDS011;5728;42.722;23.258;2023-12-28T13:44:33;26.95;;;15.05;;
11346;SDS011;5728;42.722;23.258;2023-12-28T13:47:00;19.27;;;12.57;;
11346;SDS011;5728;42.722;23.258;2023-12-28T13:49:28;40.35;;;18.65;;
11346;SDS011;5728;42.722;23.258;2023-12-28T13:51:55;24.75;;;14.50;;
11346;SDS011;5728;42.722;23.258;2023-12-28T13:54:22;48.08;;;21.65;;
11346;SDS011;5728;42.722;23.258;2023-12-28T13:56:49;26.65;;;15.10;;
11346;SDS011;5728;42.722;23.258;2023-12-28T13:59:23;38.35;;;17.88;;
11346;SDS011;5728;42.722;23.258;2023-12-28T14:01:50;38.85;;;19.60;;
11346;SDS011;5728;42.722;23.258;2023-12-28T14:04:17;28.10;;;16.05;;
11346;SDS011;5728;42.722;23.258;2023-12-28T14:06:44;191.77;;;130.85;;
11346;SDS011;5728;42.722;23.258;2023-12-28T14:09:11;65.20;;;45.03;;
11346;SDS011;5728;42.722;23.258;2023-12-28T14:11:39;33.58;;;18.98;;
11346;SDS011;5728;42.722;23.258;2023-12-28T14:14:06;25.08;;;14.10;;
11346;SDS011;5728;42.722;23.258;2023-12-28T14:16:35;26.30;;;15.05;;
11346;SDS011;5728;42.722;23.258;2023-12-28T14:19:02;25.13;;;15.07;;
11346;SDS011;5728;42.722;23.258;2023-12-28T14:21:33;31.20;;;15.52;;
11346;SDS011;5728;42.722;23.258;2023-12-28T14:24:02;26.13;;;15.00;;
11346;SDS011;5728;42.722;23.258;2023-12-28T14:26:29;29.02;;;15.63;;
11346;SDS011;5728;42.722;23.258;2023-12-28T14:28:59;28.05;;;16.25;;
11346;SDS011;5728;42.722;23.258;2023-12-28T14:31:29;33.25;;;18.17;;